sensor_id;sensor_type;location;lat;lon;timestamp;P1;durP1;ratioP1;P2;durP2;ratioP2
64633;SDS011;51043;52.406;9.690;2023-12-07T00:00:23;25.43;;;22.63;;
64633;SDS011;51043;52.406;9.690;2023-12-07T00:02:51;24.47;;;21.43;;
64633;SDS011;51043;52.406;9.690;2023-12-07T00:05:19;28.90;;;21.90;;
64633;SDS011;51043;52.406;9.690;2023-12-07T00:07:47;25.23;;;21.17;;
64633;SDS011;51043;52.406;9.690;2023-12-07T00:10:16;23.43;;;20.97;;
64633;SDS011;51043;52.406;9.690;2023-12-07T00:12:45;26.67;;;21.27;;
64633;SDS011;51043;52.406;9.690;2023-12-07T00:15:13;26.77;;;21.67;;
64633;SDS011;51043;52.406;9.690;2023-12-07T00:17:43;24.77;;;21.10;;
64633;SDS011;51043;52.406;9.690;2023-12-07T00:20:11;25.63;;;21.43;;
64633;SDS011;51043;52.406;9.690;2023-12-07T00:22:42;24.57;;;21.57;;
64633;SDS011;51043;52.406;9.690;2023-12-07T00:25:10;22.63;;;20.07;;
64633;SDS011;51043;52.406;9.690;2023-12-07T00:27:44;25.47;;;21.93;;
64633;SDS011;51043;52.406;9.690;2023-12-07T00:30:12;26.37;;;22.50;;
64633;SDS011;51043;52.406;9.690;2023-12-07T00:32:41;24.00;;;21.47;;
64633;SDS011;51043;52.406;9.690;2023-12-07T00:35:10;21.70;;;18.90;;
64633;SDS011;51043;52.406;9.690;2023-12-07T00:37:38;25.17;;;22.43;;
64633;SDS011;51043;52.406;9.690;2023-12-07T00:40:06;26.53;;;21.00;;
64633;SDS011;51043;52.406;9.690;2023-12-07T00:42:35;24.77;;;21.90;;
64633;SDS011;51043;52.406;9.690;2023-12-07T00:45:05;24.73;;;22.03;;
64633;SDS011;51043;52.406;9.690;2023-12-07T00:47:34;25.40;;;21.27;;
64633;SDS011;51043;52.406;9.690;2023-12-07T00:50:02;26.30;;;22.70;;
64633;SDS011;51043;52.406;9.690;2023-12-07T00:52:31;25.43;;;22.17;;
64633;SDS011;51043;52.406;9.690;2023-12-07T00:54:59;27.53;;;23.10;;
64633;SDS011;51043;52.406;9.690;2023-12-07T00:57:28;29.00;;;22.63;;
64633;SDS011;51043;52.406;9.690;2023-12-07T00:59:56;23.33;;;20.70;;
64633;SDS011;51043;52.406;9.690;2023-12-07T01:02:29;26.23;;;21.93;;
64633;SDS011;51043;52.406;9.690;2023-12-07T01:04:58;21.13;;;18.00;;
64633;SDS011;51043;52.406;9.690;2023-12-07T01:07:27;28.47;;;24.70;;
64633;SDS011;51043;52.406;9.690;2023-12-07T01:09:55;27.47;;;23.17;;
64633;SDS011;51043;52.406;9.690;2023-12-07T01:12:23;27.87;;;23.63;;
64633;SDS011;51043;52.406;9.690;2023-12-07T01:14:51;24.87;;;21.43;;
64633;SDS011;51043;52.406;9.690;2023-12-07T01:17:20;26.70;;;23.13;;
64633;SDS011;51043;52.406;9.690;2023-12-07T01:19:52;28.17;;;23.47;;
64633;SDS011;51043;52.406;9.690;2023-12-07T01:22:20;27.70;;;22.73;;
64633;SDS011;51043;52.406;9.690;2023-12-07T01:24:49;26.47;;;23.40;;
64633;SDS011;51043;52.406;9.690;2023-12-07T01:27:17;26.20;;;22.53;;
64633;SDS011;51043;52.406;9.690;2023-12-07T01:29:46;29.60;;;23.70;;
64633;SDS011;51043;52.406;9.690;2023-12-07T01:32:14;29.40;;;24.63;;
64633;SDS011;51043;52.406;9.690;2023-12-07T01:34:42;27.43;;;24.50;;
64633;SDS011;51043;52.406;9.690;2023-12-07T01:37:11;30.50;;;24.03;;
64633;SDS011;51043;52.406;9.690;2023-12-07T01:39:41;27.67;;;24.13;;
64633;SDS011;51043;52.406;9.690;2023-12-07T01:42:09;29.03;;;24.03;;
64633;SDS011;51043;52.406;9.690;2023-12-07T01:44:38;31.20;;;25.73;;
64633;SDS011;51043;52.406;9.690;2023-12-07T01:47:08;26.77;;;23.87;;
64633;SDS011;51043;52.406;9.690;2023-12-07T01:49:36;29.23;;;25.87;;
64633;SDS011;51043;52.406;9.690;2023-12-07T01:52:05;27.27;;;23.57;;
64633;SDS011;51043;52.406;9.690;2023-12-07T01:54:35;30.30;;;24.37;;
64633;SDS011;51043;52.406;9.690;2023-12-07T01:57:04;29.10;;;25.13;;
64633;SDS011;51043;52.406;9.690;2023-12-07T01:59:32;29.37;;;24.20;;
64633;SDS011;51043;52.406;9.690;2023-12-07T02:02:01;27.03;;;23.80;;
64633;SDS011;51043;52.406;9.690;2023-12-07T02:04:29;28.30;;;24.70;;
64633;SDS011;51043;52.406;9.690;2023-12-07T02:06:57;28.20;;;24.90;;
64633;SDS011;51043;52.406;9.690;2023-12-07T02:09:29;30.20;;;24.17;;
64633;SDS011;51043;52.406;9.690;2023-12-07T02:11:58;28.47;;;23.53;;
64633;SDS011;51043;52.406;9.690;2023-12-07T02:14:27;27.40;;;22.63;;
64633;SDS011;51043;52.406;9.690;2023-12-07T02:16:56;25.73;;;22.33;;
64633;SDS011;51043;52.406;9.690;2023-12-07T02:22:25;29.47;;;23.70;;
64633;SDS011;51043;52.406;9.690;2023-12-07T02:25:03;27.80;;;24.37;;
64633;SDS011;51043;52.406;9.690;2023-12-07T02:27:38;26.87;;;23.70;;
64633;SDS011;51043;52.406;9.690;2023-12-07T02:30:07;27.90;;;23.37;;
64633;SDS011;51043;52.406;9.690;2023-12-07T02:32:37;28.37;;;23.60;;
64633;SDS011;51043;52.406;9.690;2023-12-07T02:35:05;27.17;;;23.43;;
64633;SDS011;51043;52.406;9.690;2023-12-07T02:37:37;25.30;;;22.63;;
64633;SDS011;51043;52.406;9.690;2023-12-07T02:40:10;32.93;;;23.97;;
64633;SDS011;51043;52.406;9.690;2023-12-07T02:42:42;26.43;;;23.20;;
64633;SDS011;51043;52.406;9.690;2023-12-07T02:45:11;26.97;;;22.70;;
64633;SDS011;51043;52.406;9.690;2023-12-07T02:47:39;26.43;;;23.43;;
64633;SDS011;51043;52.406;9.690;2023-12-07T02:50:09;24.47;;;21.87;;
64633;SDS011;51043;52.406;9.690;2023-12-07T02:52:38;27.97;;;21.63;;
64633;SDS011;51043;52.406;9.690;2023-12-07T02:55:06;23.47;;;20.03;;
64633;SDS011;51043;52.406;9.690;2023-12-07T02:57:35;24.70;;;21.23;;
64633;SDS011;51043;52.406;9.690;2023-12-07T03:00:05;24.80;;;21.23;;
64633;SDS011;51043;52.406;9.690;2023-12-07T03:02:34;26.90;;;20.63;;
64633;SDS011;51043;52.406;9.690;2023-12-07T03:05:03;26.40;;;21.37;;
64633;SDS011;51043;52.406;9.690;2023-12-07T03:07:33;24.53;;;21.40;;
64633;SDS011;51043;52.406;9.690;2023-12-07T03:10:03;26.53;;;21.93;;
64633;SDS011;51043;52.406;9.690;2023-12-07T03:12:32;27.13;;;21.37;;
64633;SDS011;51043;52.406;9.690;2023-12-07T03:15:00;28.50;;;22.87;;
64633;SDS011;51043;52.406;9.690;2023-12-07T03:17:32;25.93;;;22.53;;
64633;SDS011;51043;52.406;9.690;2023-12-07T03:20:01;26.20;;;23.13;;
64633;SDS011;51043;52.406;9.690;2023-12-07T03:22:31;25.13;;;21.13;;
64633;SDS011;51043;52.406;9.690;2023-12-07T03:25:00;25.83;;;23.03;;
64633;SDS011;51043;52.406;9.690;2023-12-07T03:27:28;25.90;;;21.90;;
64633;SDS011;51043;52.406;9.690;2023-12-07T03:29:56;26.13;;;22.07;;
64633;SDS011;51043;52.406;9.690;2023-12-07T03:32:24;26.03;;;21.70;;
64633;SDS011;51043;52.406;9.690;2023-12-07T03:34:55;25.23;;;22.00;;
64633;SDS011;51043;52.406;9.690;2023-12-07T03:37:23;26.53;;;21.93;;
64633;SDS011;51043;52.406;9.690;2023-12-07T03:39:51;25.40;;;21.83;;
64633;SDS011;51043;52.406;9.690;2023-12-07T03:42:21;25.43;;;21.47;;
64633;SDS011;51043;52.406;9.690;2023-12-07T03:44:50;25.10;;;21.67;;
64633;SDS011;51043;52.406;9.690;2023-12-07T03:47:19;25.40;;;21.50;;
64633;SDS011;51043;52.406;9.690;2023-12-07T03:49:48;23.37;;;20.87;;
64633;SDS011;51043;52.406;9.690;2023-12-07T03:52:19;22.80;;;20.37;;
64633;SDS011;51043;52.406;9.690;2023-12-07T03:54:50;24.37;;;20.60;;
64633;SDS011;51043;52.406;9.690;2023-12-07T03:57:19;22.83;;;19.97;;
64633;SDS011;51043;52.406;9.690;2023-12-07T03:59:53;28.23;;;20.93;;
64633;SDS011;51043;52.406;9.690;2023-12-07T04:02:21;23.33;;;20.93;;
64633;SDS011;51043;52.406;9.690;2023-12-07T04:04:49;24.60;;;21.90;;
64633;SDS011;51043;52.406;9.690;2023-12-07T04:07:18;25.23;;;21.57;;
64633;SDS011;51043;52.406;9.690;2023-12-07T04:09:46;25.43;;;21.60;;
64633;SDS011;51043;52.406;9.690;2023-12-07T04:12:14;23.33;;;20.43;;
64633;SDS011;51043;52.406;9.690;2023-12-07T04:14:43;27.50;;;21.20;;
64633;SDS011;51043;52.406;9.690;2023-12-07T04:17:11;22.87;;;20.33;;
64633;SDS011;51043;52.406;9.690;2023-12-07T04:19:39;24.50;;;20.17;;
64633;SDS011;51043;52.406;9.690;2023-12-07T04:22:07;21.87;;;19.23;;
64633;SDS011;51043;52.406;9.690;2023-12-07T04:24:36;24.07;;;19.67;;
64633;SDS011;51043;52.406;9.690;2023-12-07T04:27:04;20.30;;;18.20;;
64633;SDS011;51043;52.406;9.690;2023-12-07T04:29:35;26.47;;;18.13;;
64633;SDS011;51043;52.406;9.690;2023-12-07T04:32:04;21.77;;;18.90;;
64633;SDS011;51043;52.406;9.690;2023-12-07T04:34:32;17.60;;;15.67;;
64633;SDS011;51043;52.406;9.690;2023-12-07T04:37:00;20.07;;;17.50;;
64633;SDS011;51043;52.406;9.690;2023-12-07T04:39:28;23.77;;;17.67;;
64633;SDS011;51043;52.406;9.690;2023-12-07T04:41:58;24.40;;;19.20;;
64633;SDS011;51043;52.406;9.690;2023-12-07T04:44:26;20.50;;;18.10;;
64633;SDS011;51043;52.406;9.690;2023-12-07T04:46:55;21.10;;;17.13;;
64633;SDS011;51043;52.406;9.690;2023-12-07T04:49:24;23.67;;;17.70;;
64633;SDS011;51043;52.406;9.690;2023-12-07T04:51:53;19.90;;;17.73;;
64633;SDS011;51043;52.406;9.690;2023-12-07T04:54:21;23.43;;;18.27;;
64633;SDS011;51043;52.406;9.690;2023-12-07T04:56:49;21.77;;;18.13;;
64633;SDS011;51043;52.406;9.690;2023-12-07T04:59:19;20.53;;;18.37;;
64633;SDS011;51043;52.406;9.690;2023-12-07T05:01:47;22.50;;;19.10;;
64633;SDS011;51043;52.406;9.690;2023-12-07T05:04:16;23.10;;;19.67;;
64633;SDS011;51043;52.406;9.690;2023-12-07T05:06:44;27.13;;;19.37;;
64633;SDS011;51043;52.406;9.690;2023-12-07T05:09:12;21.10;;;18.57;;
64633;SDS011;51043;52.406;9.690;2023-12-07T05:11:44;23.13;;;19.20;;
64633;SDS011;51043;52.406;9.690;2023-12-07T05:14:13;21.73;;;18.93;;
64633;SDS011;51043;52.406;9.690;2023-12-07T05:16:42;21.83;;;18.40;;
64633;SDS011;51043;52.406;9.690;2023-12-07T05:19:13;23.10;;;19.00;;
64633;SDS011;51043;52.406;9.690;2023-12-07T05:21:43;24.70;;;17.97;;
64633;SDS011;51043;52.406;9.690;2023-12-07T05:24:11;22.90;;;19.03;;
64633;SDS011;51043;52.406;9.690;2023-12-07T05:26:40;24.07;;;19.30;;
64633;SDS011;51043;52.406;9.690;2023-12-07T05:29:09;23.17;;;19.63;;
64633;SDS011;51043;52.406;9.690;2023-12-07T05:31:38;22.17;;;18.87;;
64633;SDS011;51043;52.406;9.690;2023-12-07T05:34:08;24.63;;;21.00;;
64633;SDS011;51043;52.406;9.690;2023-12-07T05:36:36;24.67;;;19.60;;
64633;SDS011;51043;52.406;9.690;2023-12-07T05:39:04;25.00;;;19.57;;
64633;SDS011;51043;52.406;9.690;2023-12-07T05:41:33;24.40;;;19.93;;
64633;SDS011;51043;52.406;9.690;2023-12-07T05:44:01;23.47;;;20.90;;
64633;SDS011;51043;52.406;9.690;2023-12-07T05:46:30;24.93;;;20.50;;
64633;SDS011;51043;52.406;9.690;2023-12-07T05:48:59;28.13;;;20.17;;
64633;SDS011;51043;52.406;9.690;2023-12-07T05:51:29;22.60;;;20.20;;
64633;SDS011;51043;52.406;9.690;2023-12-07T05:53:57;25.37;;;19.10;;
64633;SDS011;51043;52.406;9.690;2023-12-07T05:56:25;27.80;;;20.37;;
64633;SDS011;51043;52.406;9.690;2023-12-07T05:58:59;24.43;;;20.30;;
64633;SDS011;51043;52.406;9.690;2023-12-07T06:01:29;23.80;;;20.70;;
64633;SDS011;51043;52.406;9.690;2023-12-07T06:03:59;22.03;;;19.63;;
64633;SDS011;51043;52.406;9.690;2023-12-07T06:06:29;27.43;;;20.97;;
64633;SDS011;51043;52.406;9.690;2023-12-07T06:09:00;23.10;;;19.20;;
64633;SDS011;51043;52.406;9.690;2023-12-07T06:11:28;23.77;;;19.53;;
64633;SDS011;51043;52.406;9.690;2023-12-07T06:13:57;27.20;;;19.90;;
64633;SDS011;51043;52.406;9.690;2023-12-07T06:16:26;24.03;;;19.00;;
64633;SDS011;51043;52.406;9.690;2023-12-07T06:18:55;22.97;;;19.50;;
64633;SDS011;51043;52.406;9.690;2023-12-07T06:21:23;25.77;;;20.07;;
64633;SDS011;51043;52.406;9.690;2023-12-07T06:23:56;24.63;;;19.20;;
64633;SDS011;51043;52.406;9.690;2023-12-07T06:26:25;24.60;;;19.47;;
64633;SDS011;51043;52.406;9.690;2023-12-07T06:28:53;25.27;;;18.07;;
64633;SDS011;51043;52.406;9.690;2023-12-07T06:31:21;23.40;;;20.33;;
64633;SDS011;51043;52.406;9.690;2023-12-07T06:33:52;26.60;;;19.87;;
64633;SDS011;51043;52.406;9.690;2023-12-07T06:36:20;26.80;;;19.17;;
64633;SDS011;51043;52.406;9.690;2023-12-07T06:38:49;27.37;;;20.40;;
64633;SDS011;51043;52.406;9.690;2023-12-07T06:41:18;22.90;;;19.30;;
64633;SDS011;51043;52.406;9.690;2023-12-07T06:43:46;26.50;;;19.43;;
64633;SDS011;51043;52.406;9.690;2023-12-07T06:46:15;21.37;;;18.80;;
64633;SDS011;51043;52.406;9.690;2023-12-07T06:48:45;24.17;;;19.17;;
64633;SDS011;51043;52.406;9.690;2023-12-07T06:51:13;24.07;;;19.07;;
64633;SDS011;51043;52.406;9.690;2023-12-07T06:53:41;25.53;;;19.50;;
64633;SDS011;51043;52.406;9.690;2023-12-07T06:56:09;23.70;;;19.10;;
64633;SDS011;51043;52.406;9.690;2023-12-07T06:58:39;26.50;;;18.83;;
64633;SDS011;51043;52.406;9.690;2023-12-07T07:01:06;23.77;;;19.20;;
64633;SDS011;51043;52.406;9.690;2023-12-07T07:03:35;24.27;;;19.33;;
64633;SDS011;51043;52.406;9.690;2023-12-07T07:06:03;24.60;;;18.67;;
64633;SDS011;51043;52.406;9.690;2023-12-07T07:08:32;23.07;;;18.13;;
64633;SDS011;51043;52.406;9.690;2023-12-07T07:11:00;29.50;;;18.90;;
64633;SDS011;51043;52.406;9.690;2023-12-07T07:13:30;23.53;;;20.17;;
64633;SDS011;51043;52.406;9.690;2023-12-07T07:16:00;24.27;;;20.37;;
64633;SDS011;51043;52.406;9.690;2023-12-07T07:18:28;24.80;;;18.93;;
64633;SDS011;51043;52.406;9.690;2023-12-07T07:20:57;30.17;;;22.77;;
64633;SDS011;51043;52.406;9.690;2023-12-07T07:23:25;28.20;;;21.40;;
64633;SDS011;51043;52.406;9.690;2023-12-07T07:25:56;24.10;;;19.50;;
64633;SDS011;51043;52.406;9.690;2023-12-07T07:28:24;23.60;;;18.70;;
64633;SDS011;51043;52.406;9.690;2023-12-07T07:30:54;25.13;;;19.83;;
64633;SDS011;51043;52.406;9.690;2023-12-07T07:33:24;23.33;;;18.63;;
64633;SDS011;51043;52.406;9.690;2023-12-07T07:35:52;27.67;;;18.87;;
64633;SDS011;51043;52.406;9.690;2023-12-07T07:38:22;22.73;;;17.37;;
64633;SDS011;51043;52.406;9.690;2023-12-07T07:40:51;23.67;;;17.33;;
64633;SDS011;51043;52.406;9.690;2023-12-07T07:43:19;29.67;;;19.83;;
64633;SDS011;51043;52.406;9.690;2023-12-07T07:45:47;22.73;;;17.83;;
64633;SDS011;51043;52.406;9.690;2023-12-07T07:48:15;35.10;;;25.63;;
64633;SDS011;51043;52.406;9.690;2023-12-07T07:50:47;22.63;;;16.50;;
64633;SDS011;51043;52.406;9.690;2023-12-07T07:53:16;31.00;;;24.30;;
64633;SDS011;51043;52.406;9.690;2023-12-07T07:55:43;26.23;;;17.30;;
64633;SDS011;51043;52.406;9.690;2023-12-07T07:58:12;18.27;;;15.80;;
64633;SDS011;51043;52.406;9.690;2023-12-07T08:00:40;24.47;;;16.07;;
64633;SDS011;51043;52.406;9.690;2023-12-07T08:03:08;19.73;;;15.97;;
64633;SDS011;51043;52.406;9.690;2023-12-07T08:05:36;20.20;;;16.70;;
64633;SDS011;51043;52.406;9.690;2023-12-07T08:08:06;21.97;;;16.70;;
64633;SDS011;51043;52.406;9.690;2023-12-07T08:10:35;19.00;;;15.33;;
64633;SDS011;51043;52.406;9.690;2023-12-07T08:13:04;21.33;;;16.77;;
64633;SDS011;51043;52.406;9.690;2023-12-07T08:15:33;20.63;;;15.47;;
64633;SDS011;51043;52.406;9.690;2023-12-07T08:18:03;18.00;;;14.77;;
64633;SDS011;51043;52.406;9.690;2023-12-07T08:20:32;25.70;;;17.27;;
64633;SDS011;51043;52.406;9.690;2023-12-07T08:23:00;29.57;;;18.20;;
64633;SDS011;51043;52.406;9.690;2023-12-07T08:25:30;23.60;;;17.07;;
64633;SDS011;51043;52.406;9.690;2023-12-07T08:27:59;25.23;;;17.87;;
64633;SDS011;51043;52.406;9.690;2023-12-07T08:30:27;24.30;;;17.53;;
64633;SDS011;51043;52.406;9.690;2023-12-07T08:32:58;27.53;;;18.23;;
64633;SDS011;51043;52.406;9.690;2023-12-07T08:35:26;21.93;;;17.23;;
64633;SDS011;51043;52.406;9.690;2023-12-07T08:37:54;18.80;;;15.73;;
64633;SDS011;51043;52.406;9.690;2023-12-07T08:40:23;15.57;;;13.90;;
64633;SDS011;51043;52.406;9.690;2023-12-07T08:42:54;20.67;;;15.00;;
64633;SDS011;51043;52.406;9.690;2023-12-07T08:45:23;17.37;;;14.20;;
64633;SDS011;51043;52.406;9.690;2023-12-07T08:47:53;16.63;;;14.33;;
64633;SDS011;51043;52.406;9.690;2023-12-07T08:50:21;18.87;;;14.60;;
64633;SDS011;51043;52.406;9.690;2023-12-07T08:52:52;18.73;;;14.90;;
64633;SDS011;51043;52.406;9.690;2023-12-07T08:55:22;18.00;;;14.13;;
64633;SDS011;51043;52.406;9.690;2023-12-07T08:57:53;21.07;;;17.10;;
64633;SDS011;51043;52.406;9.690;2023-12-07T09:00:21;25.50;;;16.53;;
64633;SDS011;51043;52.406;9.690;2023-12-07T09:02:53;24.70;;;15.90;;
64633;SDS011;51043;52.406;9.690;2023-12-07T09:05:21;23.33;;;14.33;;
64633;SDS011;51043;52.406;9.690;2023-12-07T09:07:49;22.57;;;14.90;;
64633;SDS011;51043;52.406;9.690;2023-12-07T09:10:19;18.63;;;13.10;;
64633;SDS011;51043;52.406;9.690;2023-12-07T09:12:47;16.10;;;14.07;;
64633;SDS011;51043;52.406;9.690;2023-12-07T09:15:17;18.80;;;13.27;;
64633;SDS011;51043;52.406;9.690;2023-12-07T09:17:45;16.83;;;13.20;;
64633;SDS011;51043;52.406;9.690;2023-12-07T09:20:13;16.03;;;13.50;;
64633;SDS011;51043;52.406;9.690;2023-12-07T09:22:42;16.90;;;13.23;;
64633;SDS011;51043;52.406;9.690;2023-12-07T09:25:10;19.37;;;13.03;;
64633;SDS011;51043;52.406;9.690;2023-12-07T09:27:39;17.63;;;13.03;;
64633;SDS011;51043;52.406;9.690;2023-12-07T09:30:08;21.30;;;13.27;;
64633;SDS011;51043;52.406;9.690;2023-12-07T09:32:40;18.97;;;12.63;;
64633;SDS011;51043;52.406;9.690;2023-12-07T09:35:09;14.10;;;12.23;;
64633;SDS011;51043;52.406;9.690;2023-12-07T09:37:41;16.70;;;12.47;;
64633;SDS011;51043;52.406;9.690;2023-12-07T09:40:12;23.97;;;17.33;;
64633;SDS011;51043;52.406;9.690;2023-12-07T09:42:42;20.27;;;14.43;;
64633;SDS011;51043;52.406;9.690;2023-12-07T09:45:11;19.07;;;13.63;;
64633;SDS011;51043;52.406;9.690;2023-12-07T09:47:41;19.03;;;13.77;;
64633;SDS011;51043;52.406;9.690;2023-12-07T09:50:09;18.13;;;12.77;;
64633;SDS011;51043;52.406;9.690;2023-12-07T09:52:39;17.97;;;13.90;;
64633;SDS011;51043;52.406;9.690;2023-12-07T09:55:11;19.97;;;14.57;;
64633;SDS011;51043;52.406;9.690;2023-12-07T09:57:39;15.40;;;12.10;;
64633;SDS011;51043;52.406;9.690;2023-12-07T10:00:07;18.73;;;12.17;;
64633;SDS011;51043;52.406;9.690;2023-12-07T10:02:42;16.83;;;13.90;;
64633;SDS011;51043;52.406;9.690;2023-12-07T10:05:10;19.73;;;15.73;;
64633;SDS011;51043;52.406;9.690;2023-12-07T10:07:40;20.80;;;16.13;;
64633;SDS011;51043;52.406;9.690;2023-12-07T10:10:10;17.80;;;12.93;;
64633;SDS011;51043;52.406;9.690;2023-12-07T10:12:44;15.93;;;13.00;;
64633;SDS011;51043;52.406;9.690;2023-12-07T10:15:15;16.90;;;12.53;;
64633;SDS011;51043;52.406;9.690;2023-12-07T10:17:49;16.40;;;12.93;;
64633;SDS011;51043;52.406;9.690;2023-12-07T10:23:25;16.63;;;11.57;;
64633;SDS011;51043;52.406;9.690;2023-12-07T10:25:54;16.50;;;12.53;;
64633;SDS011;51043;52.406;9.690;2023-12-07T10:28:22;17.43;;;12.73;;
64633;SDS011;51043;52.406;9.690;2023-12-07T10:30:52;14.47;;;11.97;;
64633;SDS011;51043;52.406;9.690;2023-12-07T10:33:21;14.70;;;12.17;;
64633;SDS011;51043;52.406;9.690;2023-12-07T10:35:49;16.30;;;11.97;;
64633;SDS011;51043;52.406;9.690;2023-12-07T10:38:17;16.97;;;12.20;;
64633;SDS011;51043;52.406;9.690;2023-12-07T10:40:46;17.30;;;12.27;;
64633;SDS011;51043;52.406;9.690;2023-12-07T10:43:17;17.53;;;12.50;;
64633;SDS011;51043;52.406;9.690;2023-12-07T10:45:50;16.47;;;13.13;;
64633;SDS011;51043;52.406;9.690;2023-12-07T10:48:19;15.33;;;12.30;;
64633;SDS011;51043;52.406;9.690;2023-12-07T10:50:50;17.40;;;12.93;;
64633;SDS011;51043;52.406;9.690;2023-12-07T10:53:21;17.27;;;13.80;;
64633;SDS011;51043;52.406;9.690;2023-12-07T10:55:55;17.00;;;12.20;;
64633;SDS011;51043;52.406;9.690;2023-12-07T10:58:24;14.93;;;12.60;;
64633;SDS011;51043;52.406;9.690;2023-12-07T11:00:54;13.20;;;11.67;;
64633;SDS011;51043;52.406;9.690;2023-12-07T11:03:25;17.93;;;12.37;;
64633;SDS011;51043;52.406;9.690;2023-12-07T11:05:56;15.33;;;12.07;;
64633;SDS011;51043;52.406;9.690;2023-12-07T11:08:26;15.37;;;10.97;;
64633;SDS011;51043;52.406;9.690;2023-12-07T11:11:03;15.17;;;12.57;;
64633;SDS011;51043;52.406;9.690;2023-12-07T11:13:35;18.27;;;12.77;;
64633;SDS011;51043;52.406;9.690;2023-12-07T11:16:04;13.67;;;12.00;;
64633;SDS011;51043;52.406;9.690;2023-12-07T11:18:34;15.80;;;12.77;;
64633;SDS011;51043;52.406;9.690;2023-12-07T11:21:02;14.73;;;12.27;;
64633;SDS011;51043;52.406;9.690;2023-12-07T11:23:30;14.47;;;12.47;;
64633;SDS011;51043;52.406;9.690;2023-12-07T11:26:01;19.30;;;12.80;;
64633;SDS011;51043;52.406;9.690;2023-12-07T11:28:34;20.20;;;12.50;;
64633;SDS011;51043;52.406;9.690;2023-12-07T11:31:04;16.67;;;12.47;;
64633;SDS011;51043;52.406;9.690;2023-12-07T11:33:36;15.70;;;12.90;;
64633;SDS011;51043;52.406;9.690;2023-12-07T11:36:06;14.07;;;12.57;;
64633;SDS011;51043;52.406;9.690;2023-12-07T11:38:36;15.30;;;11.80;;
64633;SDS011;51043;52.406;9.690;2023-12-07T11:41:04;16.23;;;12.17;;
64633;SDS011;51043;52.406;9.690;2023-12-07T11:43:41;15.10;;;12.33;;
64633;SDS011;51043;52.406;9.690;2023-12-07T11:46:15;14.73;;;12.20;;
64633;SDS011;51043;52.406;9.690;2023-12-07T11:48:47;14.23;;;11.97;;
64633;SDS011;51043;52.406;9.690;2023-12-07T11:51:16;14.23;;;11.63;;
64633;SDS011;51043;52.406;9.690;2023-12-07T11:53:44;13.83;;;12.33;;
64633;SDS011;51043;52.406;9.690;2023-12-07T11:56:12;15.53;;;12.77;;
64633;SDS011;51043;52.406;9.690;2023-12-07T11:58:45;17.00;;;11.77;;
64633;SDS011;51043;52.406;9.690;2023-12-07T12:01:13;18.77;;;12.33;;
64633;SDS011;51043;52.406;9.690;2023-12-07T12:03:42;15.17;;;12.67;;
64633;SDS011;51043;52.406;9.690;2023-12-07T12:06:12;18.90;;;12.43;;
64633;SDS011;51043;52.406;9.690;2023-12-07T12:08:40;16.80;;;12.00;;
64633;SDS011;51043;52.406;9.690;2023-12-07T12:11:09;16.37;;;12.03;;
64633;SDS011;51043;52.406;9.690;2023-12-07T12:13:36;16.70;;;12.90;;
64633;SDS011;51043;52.406;9.690;2023-12-07T12:16:05;17.43;;;13.27;;
64633;SDS011;51043;52.406;9.690;2023-12-07T12:18:36;16.10;;;12.23;;
64633;SDS011;51043;52.406;9.690;2023-12-07T12:21:06;15.93;;;12.27;;
64633;SDS011;51043;52.406;9.690;2023-12-07T12:23:40;17.87;;;13.00;;
64633;SDS011;51043;52.406;9.690;2023-12-07T12:26:09;15.07;;;12.27;;
64633;SDS011;51043;52.406;9.690;2023-12-07T12:28:38;55.53;;;32.63;;
64633;SDS011;51043;52.406;9.690;2023-12-07T12:31:09;18.10;;;13.20;;
64633;SDS011;51043;52.406;9.690;2023-12-07T12:33:39;31.97;;;18.60;;
64633;SDS011;51043;52.406;9.690;2023-12-07T12:36:07;15.80;;;12.73;;
64633;SDS011;51043;52.406;9.690;2023-12-07T12:38:39;25.10;;;17.03;;
64633;SDS011;51043;52.406;9.690;2023-12-07T12:41:08;22.83;;;14.77;;
64633;SDS011;51043;52.406;9.690;2023-12-07T12:43:36;23.17;;;15.57;;
64633;SDS011;51043;52.406;9.690;2023-12-07T12:46:05;20.87;;;14.17;;
64633;SDS011;51043;52.406;9.690;2023-12-07T12:48:33;15.97;;;13.40;;
64633;SDS011;51043;52.406;9.690;2023-12-07T12:51:07;50.23;;;31.80;;
64633;SDS011;51043;52.406;9.690;2023-12-07T12:53:35;18.27;;;13.90;;
64633;SDS011;51043;52.406;9.690;2023-12-07T12:56:11;18.87;;;14.37;;
64633;SDS011;51043;52.406;9.690;2023-12-07T12:58:41;20.33;;;14.90;;
64633;SDS011;51043;52.406;9.690;2023-12-07T13:01:11;18.60;;;14.57;;
64633;SDS011;51043;52.406;9.690;2023-12-07T13:03:40;19.00;;;14.90;;
64633;SDS011;51043;52.406;9.690;2023-12-07T13:06:08;20.87;;;16.83;;
64633;SDS011;51043;52.406;9.690;2023-12-07T13:08:36;22.87;;;16.07;;
64633;SDS011;51043;52.406;9.690;2023-12-07T13:11:04;23.80;;;16.33;;
64633;SDS011;51043;52.406;9.690;2023-12-07T13:13:34;22.50;;;16.10;;
64633;SDS011;51043;52.406;9.690;2023-12-07T13:16:02;22.40;;;17.00;;
64633;SDS011;51043;52.406;9.690;2023-12-07T13:18:31;20.87;;;15.83;;
64633;SDS011;51043;52.406;9.690;2023-12-07T13:21:00;20.37;;;16.27;;
64633;SDS011;51043;52.406;9.690;2023-12-07T13:23:29;22.63;;;17.30;;
64633;SDS011;51043;52.406;9.690;2023-12-07T13:25:57;23.37;;;16.90;;
64633;SDS011;51043;52.406;9.690;2023-12-07T13:28:25;22.47;;;17.27;;
64633;SDS011;51043;52.406;9.690;2023-12-07T13:30:55;19.53;;;17.10;;
64633;SDS011;51043;52.406;9.690;2023-12-07T13:33:23;24.93;;;17.77;;
64633;SDS011;51043;52.406;9.690;2023-12-07T13:35:52;22.17;;;18.40;;
64633;SDS011;51043;52.406;9.690;2023-12-07T13:38:21;26.50;;;18.23;;
64633;SDS011;51043;52.406;9.690;2023-12-07T13:40:49;26.23;;;18.53;;
64633;SDS011;51043;52.406;9.690;2023-12-07T13:43:18;26.03;;;18.43;;
64633;SDS011;51043;52.406;9.690;2023-12-07T13:45:46;24.60;;;17.97;;
64633;SDS011;51043;52.406;9.690;2023-12-07T13:48:19;23.70;;;18.63;;
64633;SDS011;51043;52.406;9.690;2023-12-07T13:50:47;27.00;;;18.90;;
64633;SDS011;51043;52.406;9.690;2023-12-07T13:53:16;27.40;;;19.00;;
64633;SDS011;51043;52.406;9.690;2023-12-07T13:55:44;27.40;;;19.80;;
64633;SDS011;51043;52.406;9.690;2023-12-07T13:58:13;26.53;;;18.77;;
64633;SDS011;51043;52.406;9.690;2023-12-07T14:00:41;27.37;;;19.53;;
64633;SDS011;51043;52.406;9.690;2023-12-07T14:03:11;25.20;;;18.63;;
64633;SDS011;51043;52.406;9.690;2023-12-07T14:05:41;24.07;;;19.53;;
64633;SDS011;51043;52.406;9.690;2023-12-07T14:08:09;25.03;;;19.37;;
64633;SDS011;51043;52.406;9.690;2023-12-07T14:10:37;26.17;;;18.27;;
64633;SDS011;51043;52.406;9.690;2023-12-07T14:13:05;27.17;;;19.33;;
64633;SDS011;51043;52.406;9.690;2023-12-07T14:15:37;24.37;;;18.13;;
64633;SDS011;51043;52.406;9.690;2023-12-07T14:18:08;23.23;;;17.47;;
64633;SDS011;51043;52.406;9.690;2023-12-07T14:20:36;27.47;;;19.00;;
64633;SDS011;51043;52.406;9.690;2023-12-07T14:23:10;26.27;;;19.07;;
64633;SDS011;51043;52.406;9.690;2023-12-07T14:25:38;23.23;;;18.30;;
64633;SDS011;51043;52.406;9.690;2023-12-07T14:28:09;27.43;;;18.90;;
64633;SDS011;51043;52.406;9.690;2023-12-07T14:30:37;24.33;;;19.00;;
64633;SDS011;51043;52.406;9.690;2023-12-07T14:33:05;28.37;;;18.33;;
64633;SDS011;51043;52.406;9.690;2023-12-07T14:35:35;25.70;;;18.80;;
64633;SDS011;51043;52.406;9.690;2023-12-07T14:38:03;25.27;;;19.00;;